Time;durP1;ratioP1;P1;durP2;ratioP2;P2;SDS_P1;SDS_P2;PMS_P1;PMS_P2;Temp;Humidity;BMP_temperature;BMP_pressure;BME280_temperature;BME280_humidity;BME280_pressure;Samples;Min_cycle;Max_cycle;Signal;HPM_P1;HPM_P2
2022/12/04 00:00:21;;;;;;;45.10;15.95;;;;;;;;;;4977876;28;20027;-80
2022/12/04 00:02:46;;;;;;;44.88;15.48;;;;;;;;;;4979276;28;20071;-80
2022/12/04 00:05:11;;;;;;;30.15;11.60;;;;;;;;;;4977477;28;20388;-79
2022/12/04 00:07:37;;;;;;;44.35;15.25;;;;;;;;;;4978269;28;20023;-80
2022/12/04 00:10:03;;;;;;;38.83;14.00;;;;;;;;;;4978889;28;20524;-79
2022/12/04 00:12:28;;;;;;;40.55;16.15;;;;;;;;;;4979078;28;20023;-79
2022/12/04 00:14:53;;;;;;;47.33;16.30;;;;;;;;;;4977949;28;20041;-79
2022/12/04 00:17:19;;;;;;;46.17;15.90;;;;;;;;;;4977951;28;20054;-80
2022/12/04 00:19:44;;;;;;;44.22;15.85;;;;;;;;;;4979359;28;20105;-79
2022/12/04 00:22:09;;;;;;;38.53;14.73;;;;;;;;;;4978680;28;20026;-80
2022/12/04 00:24:35;;;;;;;44.35;15.25;;;;;;;;;;4977660;28;20140;-78
2022/12/04 00:27:00;;;;;;;39.38;15.35;;;;;;;;;;4978472;28;20050;-80
2022/12/04 00:29:25;;;;;;;44.33;15.07;;;;;;;;;;4977559;28;20041;-80
2022/12/04 00:31:51;;;;;;;39.47;14.85;;;;;;;;;;4980388;28;20392;-80
2022/12/04 00:34:16;;;;;;;40.80;14.00;;;;;;;;;;4976721;28;20041;-80
2022/12/04 00:36:42;;;;;;;37.95;15.13;;;;;;;;;;4977837;28;20379;-80
2022/12/04 00:39:07;;;;;;;40.22;14.82;;;;;;;;;;4977220;28;20026;-80
2022/12/04 00:41:33;;;;;;;43.83;16.50;;;;;;;;;;4977666;28;20027;-80
2022/12/04 00:43:59;;;;;;;35.67;13.77;;;;;;;;;;4977643;28;20054;-80
2022/12/04 00:46:25;;;;;;;43.17;15.60;;;;;;;;;;4978523;28;20030;-80
2022/12/04 00:48:51;;;;;;;35.95;13.82;;;;;;;;;;4978309;28;20026;-80
2022/12/04 00:51:19;;;;;;;40.45;15.63;;;;;;;;;;4977979;28;20034;-80
2022/12/04 00:53:45;;;;;;;48.47;17.70;;;;;;;;;;4978497;28;20054;-80
2022/12/04 00:56:13;;;;;;;42.50;14.40;;;;;;;;;;4978488;28;20026;-80
2022/12/04 00:58:39;;;;;;;39.30;14.23;;;;;;;;;;4977172;28;20412;-80
2022/12/04 01:01:10;;;;;;;47.75;17.02;;;;;;;;;;4978074;28;20035;-79
2022/12/04 01:03:36;;;;;;;44.88;15.52;;;;;;;;;;4978588;28;20034;-80
2022/12/04 01:06:02;;;;;;;48.67;17.45;;;;;;;;;;4978293;28;20034;-80
2022/12/04 01:08:27;;;;;;;51.13;18.23;;;;;;;;;;4976907;28;20023;-80
2022/12/04 01:10:53;;;;;;;46.38;15.98;;;;;;;;;;4976902;28;20033;-79
2022/12/04 01:13:18;;;;;;;49.80;16.90;;;;;;;;;;4978307;28;20026;-80
2022/12/04 01:15:43;;;;;;;53.35;18.17;;;;;;;;;;4978766;28;20097;-80
2022/12/04 01:18:10;;;;;;;52.10;16.70;;;;;;;;;;4978064;28;20484;-80
2022/12/04 01:20:36;;;;;;;50.97;18.05;;;;;;;;;;4978083;28;20496;-80
2022/12/04 01:23:01;;;;;;;53.75;19.20;;;;;;;;;;4977951;28;20488;-80
2022/12/04 01:25:27;;;;;;;48.38;18.05;;;;;;;;;;4976799;28;20019;-79
2022/12/04 01:27:52;;;;;;;50.92;18.35;;;;;;;;;;4977960;28;20105;-81
2022/12/04 01:30:18;;;;;;;50.63;18.27;;;;;;;;;;4978389;28;20031;-79
2022/12/04 01:32:43;;;;;;;54.88;18.35;;;;;;;;;;4978376;28;20456;-79
2022/12/04 01:35:08;;;;;;;40.15;15.32;;;;;;;;;;4978380;28;20046;-80
2022/12/04 01:37:33;;;;;;;53.10;18.15;;;;;;;;;;4977658;28;20029;-80
2022/12/04 01:39:59;;;;;;;41.97;13.68;;;;;;;;;;4977978;28;20042;-80
2022/12/04 01:42:25;;;;;;;53.05;18.58;;;;;;;;;;4978210;28;20051;-81
2022/12/04 01:45:28;;;;;;;50.60;17.95;;;;;;;;;;4976529;28;20512;-80
2022/12/04 01:48:05;;;;;;;49.78;16.98;;;;;;;;;;4976621;28;20030;-81
2022/12/04 01:50:30;;;;;;;45.92;16.45;;;;;;;;;;4977521;28;20026;-80
2022/12/04 01:52:55;;;;;;;52.20;16.88;;;;;;;;;;4981066;28;20469;-80
2022/12/04 01:55:21;;;;;;;47.10;17.17;;;;;;;;;;4979895;28;20031;-79
2022/12/04 01:57:46;;;;;;;48.53;16.25;;;;;;;;;;4982306;28;20037;-79
2022/12/04 02:00:14;;;;;;;42.20;15.30;;;;;;;;;;4980395;28;20045;-80
2022/12/04 02:02:46;;;;;;;47.13;16.55;;;;;;;;;;4980981;28;20038;-81
2022/12/04 02:05:19;;;;;;;42.15;13.60;;;;;;;;;;4979780;28;20030;-79
2022/12/04 02:07:47;;;;;;;52.60;15.82;;;;;;;;;;4980180;28;20504;-80
2022/12/04 02:10:15;;;;;;;46.63;17.92;;;;;;;;;;4980221;28;20513;-80
2022/12/04 02:12:44;;;;;;;43.03;14.82;;;;;;;;;;4980138;28;20050;-80
2022/12/04 02:15:22;;;;;;;45.25;17.30;;;;;;;;;;4981053;28;20073;-80
2022/12/04 02:17:56;;;;;;;49.35;17.23;;;;;;;;;;4981529;28;20427;-79
2022/12/04 02:20:25;;;;;;;46.83;17.38;;;;;;;;;;4981018;28;20031;-78
2022/12/04 02:23:01;;;;;;;44.83;15.70;;;;;;;;;;4979395;28;20023;-80
2022/12/04 02:25:45;;;;;;;51.00;18.20;;;;;;;;;;4981140;28;20109;-80
2022/12/04 02:28:21;;;;;;;52.75;16.90;;;;;;;;;;4980223;28;20026;-81
2022/12/04 02:30:49;;;;;;;49.35;17.05;;;;;;;;;;4979259;28;20030;-81
2022/12/04 02:33:22;;;;;;;47.65;18.10;;;;;;;;;;4980806;28;20436;-80
2022/12/04 02:35:53;;;;;;;58.28;19.63;;;;;;;;;;4980460;28;20026;-81
2022/12/04 02:38:39;;;;;;;45.35;17.88;;;;;;;;;;4979903;28;20023;-80
2022/12/04 02:41:18;;;;;;;49.63;18.30;;;;;;;;;;4980473;28;20047;-79
2022/12/04 02:43:49;;;;;;;49.28;18.50;;;;;;;;;;4980793;28;20057;-80
2022/12/04 02:46:14;;;;;;;58.05;19.90;;;;;;;;;;4979879;28;20026;-80
2022/12/04 02:48:44;;;;;;;51.97;19.20;;;;;;;;;;4979665;28;20114;-79
2022/12/04 02:51:12;;;;;;;53.78;18.85;;;;;;;;;;4979911;28;20261;-79
2022/12/04 02:53:43;;;;;;;46.10;17.73;;;;;;;;;;4979868;28;20026;-80
2022/12/04 02:56:12;;;;;;;51.63;17.02;;;;;;;;;;4980316;28;20353;-80
2022/12/04 02:58:44;;;;;;;59.22;20.27;;;;;;;;;;4979354;28;20539;-79
2022/12/04 03:01:20;;;;;;;47.08;18.67;;;;;;;;;;4978057;28;20492;-79
2022/12/04 03:03:53;;;;;;;59.60;19.20;;;;;;;;;;4978279;28;20030;-80
2022/12/04 03:06:21;;;;;;;48.15;16.92;;;;;;;;;;4978414;28;20086;-79
2022/12/04 03:08:52;;;;;;;56.40;20.13;;;;;;;;;;4980229;28;20102;-78
2022/12/04 03:11:17;;;;;;;55.03;19.23;;;;;;;;;;4979833;28;20029;-79
2022/12/04 03:13:48;;;;;;;52.17;17.90;;;;;;;;;;4980338;28;20055;-80
2022/12/04 03:16:40;;;;;;;49.30;18.40;;;;;;;;;;4978783;28;20457;-79
2022/12/04 03:19:14;;;;;;;28.77;12.43;;;;;;;;;;4978426;28;20030;-80
2022/12/04 03:21:45;;;;;;;55.53;18.83;;;;;;;;;;4980103;28;20031;-79
2022/12/04 03:24:18;;;;;;;44.88;17.38;;;;;;;;;;4978416;28;20062;-80
2022/12/04 03:26:52;;;;;;;49.38;19.38;;;;;;;;;;4979467;28;20029;-81
2022/12/04 03:29:22;;;;;;;;;;;;;;;;;;4978557;28;20031;-80
2022/12/04 03:31:59;;;;;;;47.00;16.60;;;;;;;;;;4980106;28;20362;-79
2022/12/04 03:34:32;;;;;;;50.05;18.83;;;;;;;;;;4979873;28;20034;-79
2022/12/04 03:37:07;;;;;;;47.08;18.65;;;;;;;;;;4979521;28;20023;-80
2022/12/04 03:39:50;;;;;;;49.10;17.75;;;;;;;;;;4979356;28;20027;-80
2022/12/04 03:42:21;;;;;;;32.97;11.45;;;;;;;;;;4979425;28;20022;-82
2022/12/04 03:45:15;;;;;;;42.72;17.25;;;;;;;;;;4978406;28;20023;-80
2022/12/04 03:47:48;;;;;;;50.15;17.25;;;;;;;;;;4979253;28;20038;-79
2022/12/04 03:50:30;;;;;;;39.00;16.55;;;;;;;;;;4979212;28;20055;-80
2022/12/04 03:53:03;;;;;;;49.05;19.02;;;;;;;;;;4979242;28;20027;-80
2022/12/04 03:55:42;;;;;;;50.20;17.77;;;;;;;;;;4979236;28;20027;-80
2022/12/04 03:58:16;;;;;;;44.28;18.15;;;;;;;;;;4979036;28;20034;-80
2022/12/04 04:00:43;;;;;;;54.58;16.98;;;;;;;;;;4977865;28;20459;-80
2022/12/04 04:03:14;;;;;;;49.15;18.23;;;;;;;;;;4979712;28;20027;-80
2022/12/04 04:05:46;;;;;;;47.53;18.00;;;;;;;;;;4977578;28;20053;-79
2022/12/04 04:08:25;;;;;;;46.85;17.38;;;;;;;;;;4978440;28;20031;-80
2022/12/04 04:10:54;;;;;;;45.33;16.23;;;;;;;;;;4979521;28;20393;-81
2022/12/04 04:24:46;;;;;;;48.58;15.85;;;;;;;;;;4979107;28;20073;-81
2022/12/04 04:27:12;;;;;;;34.45;12.30;;;;;;;;;;4978981;28;20031;-81
2022/12/04 04:29:38;;;;;;;45.00;16.23;;;;;;;;;;4978776;28;20027;-81
2022/12/04 04:32:12;;;;;;;37.28;15.75;;;;;;;;;;4978367;28;20035;-81
2022/12/04 04:34:59;;;;;;;44.95;16.23;;;;;;;;;;4977142;28;20455;-81
2022/12/04 04:37:28;;;;;;;41.60;17.60;;;;;;;;;;4978826;28;20033;-81
2022/12/04 04:39:59;;;;;;;38.80;15.45;;;;;;;;;;4978446;28;20022;-80
2022/12/04 04:42:35;;;;;;;39.35;14.98;;;;;;;;;;4978718;28;20027;-80
2022/12/04 04:45:07;;;;;;;34.63;13.90;;;;;;;;;;4979027;28;20031;-80
2022/12/04 04:47:41;;;;;;;40.45;15.80;;;;;;;;;;4978763;28;20026;-80
2022/12/04 04:50:09;;;;;;;43.85;17.08;;;;;;;;;;4977461;28;20038;-81
2022/12/04 04:52:38;;;;;;;45.83;17.98;;;;;;;;;;4977446;28;20030;-80
2022/12/04 04:55:04;;;;;;;47.17;18.42;;;;;;;;;;4978502;28;20054;-80
2022/12/04 04:57:34;;;;;;;47.13;17.20;;;;;;;;;;4978170;28;20051;-81
2022/12/04 05:00:00;;;;;;;46.05;17.17;;;;;;;;;;4976998;28;20027;-80
2022/12/04 05:02:26;;;;;;;45.17;17.25;;;;;;;;;;4978830;28;20035;-81
2022/12/04 05:04:52;;;;;;;50.47;18.08;;;;;;;;;;4976503;28;20023;-81
2022/12/04 05:07:17;;;;;;;41.53;17.48;;;;;;;;;;4978664;28;20050;-81
2022/12/04 05:09:42;;;;;;;38.75;16.73;;;;;;;;;;4978451;28;20081;-81
2022/12/04 05:12:09;;;;;;;38.50;16.08;;;;;;;;;;4978924;28;20038;-81
2022/12/04 05:14:34;;;;;;;45.58;15.93;;;;;;;;;;4978779;28;20031;-79
2022/12/04 05:16:59;;;;;;;40.15;16.27;;;;;;;;;;4978469;28;20027;-80
2022/12/04 05:22:08;;;;;;;38.83;16.20;;;;;;;;;;4978698;28;20440;-80
2022/12/04 05:24:33;;;;;;;45.75;18.08;;;;;;;;;;4978772;28;20030;-80
2022/12/04 05:26:59;;;;;;;42.65;17.80;;;;;;;;;;4981838;28;20019;-81
2022/12/04 05:29:24;;;;;;;45.17;18.27;;;;;;;;;;4980037;28;20480;-81
2022/12/04 05:31:49;;;;;;;37.13;15.88;;;;;;;;;;4980775;28;20038;-80
2022/12/04 05:34:15;;;;;;;43.05;17.67;;;;;;;;;;4981761;28;20054;-80
2022/12/04 05:36:40;;;;;;;41.42;16.60;;;;;;;;;;4981128;28;20046;-80
2022/12/04 05:39:05;;;;;;;47.08;18.20;;;;;;;;;;4982155;28;20173;-79
2022/12/04 05:41:30;;;;;;;39.78;16.15;;;;;;;;;;4981726;28;20073;-79
2022/12/04 05:43:56;;;;;;;42.08;15.77;;;;;;;;;;4980565;28;20049;-80
2022/12/04 05:46:21;;;;;;;42.00;18.02;;;;;;;;;;4981840;28;20023;-78
2022/12/04 05:48:46;;;;;;;50.20;18.65;;;;;;;;;;4980413;28;20023;-78
2022/12/04 05:51:11;;;;;;;50.13;18.50;;;;;;;;;;4980330;28;20025;-80
2022/12/04 05:53:37;;;;;;;45.50;18.77;;;;;;;;;;4981424;28;20441;-81
2022/12/04 05:56:05;;;;;;;40.08;17.50;;;;;;;;;;4981338;28;20435;-80
2022/12/04 05:58:33;;;;;;;45.05;16.75;;;;;;;;;;4980721;28;20034;-78
2022/12/04 06:00:59;;;;;;;40.80;17.40;;;;;;;;;;4980937;28;20090;-79
2022/12/04 06:03:24;;;;;;;45.30;17.92;;;;;;;;;;4981467;28;20023;-79
2022/12/04 06:05:49;;;;;;;54.67;19.15;;;;;;;;;;4979978;28;20023;-81
2022/12/04 06:08:14;;;;;;;40.10;17.88;;;;;;;;;;4981212;28;20050;-80
2022/12/04 06:10:40;;;;;;;49.65;17.52;;;;;;;;;;4980860;28;20118;-80
2022/12/04 06:13:06;;;;;;;48.08;19.20;;;;;;;;;;4980116;28;20097;-81
2022/12/04 06:15:39;;;;;;;46.85;18.83;;;;;;;;;;4981002;28;20038;-79
2022/12/04 06:18:04;;;;;;;43.22;17.95;;;;;;;;;;4981180;28;20114;-80
2022/12/04 06:20:29;;;;;;;46.95;18.25;;;;;;;;;;4979574;28;20121;-79
2022/12/04 06:22:54;;;;;;;53.78;17.98;;;;;;;;;;4979658;28;20029;-80
2022/12/04 06:25:20;;;;;;;51.22;18.80;;;;;;;;;;4980199;28;20489;-79
2022/12/04 06:27:45;;;;;;;45.78;18.45;;;;;;;;;;4978584;28;20027;-81
2022/12/04 06:30:11;;;;;;;50.45;18.83;;;;;;;;;;4980720;28;20082;-79
2022/12/04 06:32:36;;;;;;;40.10;16.95;;;;;;;;;;4980531;28;20023;-80
2022/12/04 06:35:01;;;;;;;47.35;17.80;;;;;;;;;;4979229;28;20046;-79
2022/12/04 06:37:27;;;;;;;46.30;17.80;;;;;;;;;;4976799;28;20507;-80
2022/12/04 06:39:52;;;;;;;47.65;17.42;;;;;;;;;;4978809;28;20037;-80
2022/12/04 06:42:17;;;;;;;42.22;17.90;;;;;;;;;;4980271;28;20030;-79
2022/12/04 06:44:43;;;;;;;42.38;18.27;;;;;;;;;;4978184;28;20027;-79
2022/12/04 06:47:08;;;;;;;50.97;19.90;;;;;;;;;;4978082;28;20027;-79
2022/12/04 06:49:35;;;;;;;47.35;18.40;;;;;;;;;;4979943;28;20477;-80
2022/12/04 06:52:00;;;;;;;48.08;18.45;;;;;;;;;;4980789;28;20023;-80
2022/12/04 06:54:25;;;;;;;37.72;16.98;;;;;;;;;;4980915;28;20030;-80
2022/12/04 06:56:50;;;;;;;36.83;14.60;;;;;;;;;;4980339;28;20034;-78
2022/12/04 06:59:16;;;;;;;48.55;17.63;;;;;;;;;;4979080;28;20062;-80
2022/12/04 07:01:41;;;;;;;42.83;17.60;;;;;;;;;;4980271;28;20415;-81
2022/12/04 07:04:06;;;;;;;43.55;17.67;;;;;;;;;;4979850;28;20031;-79
2022/12/04 07:06:36;;;;;;;43.72;17.63;;;;;;;;;;4979945;28;20030;-80
2022/12/04 07:09:10;;;;;;;50.25;17.30;;;;;;;;;;4980475;28;20034;-80
2022/12/04 07:11:36;;;;;;;33.65;14.80;;;;;;;;;;4980186;28;20030;-82
2022/12/04 07:14:02;;;;;;;47.67;17.90;;;;;;;;;;4979107;28;20121;-81
2022/12/04 07:16:28;;;;;;;49.40;18.83;;;;;;;;;;4980275;28;20030;-80
2022/12/04 07:18:53;;;;;;;41.30;17.33;;;;;;;;;;4977832;28;20022;-79
2022/12/04 07:21:21;;;;;;;38.10;16.40;;;;;;;;;;4979963;28;20019;-80
2022/12/04 07:23:51;;;;;;;45.45;18.73;;;;;;;;;;4978463;28;20132;-80
2022/12/04 07:26:17;;;;;;;40.95;14.07;;;;;;;;;;4979110;28;20035;-80
2022/12/04 07:28:45;;;;;;;50.58;20.38;;;;;;;;;;4979973;28;20396;-79
2022/12/04 07:31:14;;;;;;;52.97;21.30;;;;;;;;;;4978947;28;20059;-79
2022/12/04 07:33:39;;;;;;;56.05;21.80;;;;;;;;;;4976594;28;20027;-81
2022/12/04 07:36:07;;;;;;;48.72;20.98;;;;;;;;;;4978733;28;20037;-80
2022/12/04 07:38:38;;;;;;;51.17;20.65;;;;;;;;;;4978430;28;20560;-80
2022/12/04 07:41:05;;;;;;;58.53;22.02;;;;;;;;;;4980640;28;20472;-81
2022/12/04 07:43:32;;;;;;;54.28;21.05;;;;;;;;;;4979361;28;20073;-81
2022/12/04 07:46:02;;;;;;;48.65;19.65;;;;;;;;;;4978183;28;20027;-80
2022/12/04 07:48:27;;;;;;;56.17;20.02;;;;;;;;;;4976632;28;20033;-80
2022/12/04 07:51:07;;;;;;;48.88;20.02;;;;;;;;;;4977334;28;20022;-78
2022/12/04 07:53:34;;;;;;;45.05;18.65;;;;;;;;;;4977303;28;20030;-80
2022/12/04 07:56:00;;;;;;;41.40;16.98;;;;;;;;;;4977265;28;20033;-83
2022/12/04 07:58:25;;;;;;;46.53;19.20;;;;;;;;;;4977203;28;20034;-79
2022/12/04 08:00:50;;;;;;;48.13;19.25;;;;;;;;;;4975662;28;20030;-80
2022/12/04 08:03:16;;;;;;;44.47;18.02;;;;;;;;;;4976061;28;20480;-81
2022/12/04 08:05:41;;;;;;;49.03;18.33;;;;;;;;;;4977012;28;20047;-80
2022/12/04 08:08:07;;;;;;;36.47;15.68;;;;;;;;;;4976072;28;20027;-79
2022/12/04 08:10:32;;;;;;;44.13;16.40;;;;;;;;;;4982394;28;20112;-79
2022/12/04 08:12:57;;;;;;;41.03;17.45;;;;;;;;;;4978146;28;20054;-80
2022/12/04 08:15:22;;;;;;;29.13;12.32;;;;;;;;;;4978927;28;20023;-80
2022/12/04 08:17:47;;;;;;;53.35;21.65;;;;;;;;;;4977484;28;20094;-80
2022/12/04 08:20:13;;;;;;;57.65;21.23;;;;;;;;;;4977065;28;20031;-80
2022/12/04 08:22:38;;;;;;;51.88;20.75;;;;;;;;;;4980315;28;20511;-80
2022/12/04 08:25:04;;;;;;;53.55;20.92;;;;;;;;;;4977160;28;20023;-80
2022/12/04 08:27:29;;;;;;;53.30;23.02;;;;;;;;;;4976660;28;20498;-80
2022/12/04 08:29:54;;;;;;;49.45;19.75;;;;;;;;;;4974842;28;20046;-80
2022/12/04 08:32:19;;;;;;;52.60;21.27;;;;;;;;;;4975830;28;20101;-80
2022/12/04 08:34:50;;;;;;;58.42;21.67;;;;;;;;;;4980523;28;20038;-81
2022/12/04 08:37:15;;;;;;;64.43;21.65;;;;;;;;;;4978076;28;20023;-79
2022/12/04 08:39:40;;;;;;;51.95;20.77;;;;;;;;;;4975230;28;20026;-79
2022/12/04 08:42:05;;;;;;;54.72;20.55;;;;;;;;;;4976668;28;20025;-81
2022/12/04 08:44:31;;;;;;;50.35;20.80;;;;;;;;;;4978225;28;20050;-81
2022/12/04 08:46:56;;;;;;;53.50;20.77;;;;;;;;;;4978781;28;20405;-80
2022/12/04 08:49:21;;;;;;;45.08;17.92;;;;;;;;;;4978593;28;20041;-80
2022/12/04 08:51:46;;;;;;;53.58;20.63;;;;;;;;;;4977538;28;20026;-80
2022/12/04 08:54:12;;;;;;;45.42;19.95;;;;;;;;;;4977188;28;20073;-81
2022/12/04 08:56:37;;;;;;;54.35;22.20;;;;;;;;;;4977900;28;20031;-81
2022/12/04 08:59:03;;;;;;;49.97;21.17;;;;;;;;;;4976545;28;20035;-80
2022/12/04 09:01:40;;;;;;;54.53;21.63;;;;;;;;;;4981580;28;20030;-81
2022/12/04 09:04:06;;;;;;;46.67;20.67;;;;;;;;;;4983283;28;20031;-81
2022/12/04 09:06:31;;;;;;;46.17;20.27;;;;;;;;;;4981968;28;20022;-80
2022/12/04 09:09:08;;;;;;;51.03;21.17;;;;;;;;;;4982619;28;20065;-80
2022/12/04 09:11:37;;;;;;;36.33;16.15;;;;;;;;;;4984395;28;20050;-80
2022/12/04 09:14:05;;;;;;;21.13;10.68;;;;;;;;;;4984645;28;20022;-81
2022/12/04 09:16:38;;;;;;;22.45;11.38;;;;;;;;;;4984416;28;20022;-81
2022/12/04 09:19:18;;;;;;;22.83;10.57;;;;;;;;;;4983176;28;20031;-82
2022/12/04 09:25:11;;;;;;;;;;;;;;;;;;;;;
2022/12/04 09:28:02;;;;;;;;;;;;;;;;;;;;;
2022/12/04 09:30:36;;;;;;;21.55;10.93;;;;;;;;;;4983815;28;20117;-80
2022/12/04 09:33:20;;;;;;;18.13;8.70;;;;;;;;;;4982379;28;20074;-79
2022/12/04 09:35:45;;;;;;;21.83;9.45;;;;;;;;;;4980309;28;20031;-80
2022/12/04 09:38:11;;;;;;;19.38;9.20;;;;;;;;;;4989487;28;20031;-80
2022/12/04 09:40:45;;;;;;;18.77;9.95;;;;;;;;;;4982970;28;20034;-80
2022/12/04 09:43:27;;;;;;;21.05;10.85;;;;;;;;;;4982072;28;20023;-80
2022/12/04 09:45:57;;;;;;;23.27;11.02;;;;;;;;;;4983441;28;20439;-81
2022/12/04 09:48:31;;;;;;;20.83;11.35;;;;;;;;;;4984900;28;20026;-80
2022/12/04 09:51:15;;;;;;;;;;;;;;;;;;;;;
2022/12/04 09:53:58;;;;;;;25.58;12.07;;;;;;;;;;4984749;28;20099;-82
2022/12/04 09:56:30;;;;;;;25.42;11.95;;;;;;;;;;4982126;28;20037;-80
2022/12/04 09:59:29;;;;;;;26.55;11.55;;;;;;;;;;4982513;28;20035;-81
2022/12/04 10:02:10;;;;;;;20.80;10.85;;;;;;;;;;4983070;28;20027;-80
2022/12/04 10:04:38;;;;;;;20.42;10.48;;;;;;;;;;4983466;28;20034;-80
2022/12/04 10:07:13;;;;;;;24.30;11.77;;;;;;;;;;4984088;28;20087;-80
2022/12/04 10:10:17;;;;;;;22.13;11.38;;;;;;;;;;4984770;28;20055;-81
2022/12/04 10:12:56;;;;;;;26.23;11.15;;;;;;;;;;4981289;28;20496;-79
2022/12/04 10:15:27;;;;;;;24.42;11.38;;;;;;;;;;4981808;28;20027;-79
2022/12/04 10:18:01;;;;;;;19.58;9.63;;;;;;;;;;4982593;28;20073;-81
2022/12/04 10:20:41;;;;;;;;;;;;;;;;;;4982664;28;20030;-79
2022/12/04 10:23:28;;;;;;;24.60;10.90;;;;;;;;;;4980283;28;19944;-80
2022/12/04 10:25:54;;;;;;;25.30;12.07;;;;;;;;;;4983381;28;20114;-80
2022/12/04 10:28:42;;;;;;;22.48;10.27;;;;;;;;;;4983385;28;20062;-81
2022/12/04 10:31:12;;;;;;;27.27;11.65;;;;;;;;;;4983298;28;20039;-80
2022/12/04 10:33:43;;;;;;;31.48;12.40;;;;;;;;;;4982668;28;20092;-79
2022/12/04 10:36:14;;;;;;;24.10;11.98;;;;;;;;;;4981419;28;20025;-79
2022/12/04 10:38:51;;;;;;;27.55;12.50;;;;;;;;;;4982166;28;20069;-82
2022/12/04 10:41:53;;;;;;;26.52;11.73;;;;;;;;;;4983187;28;20023;-80
2022/12/04 10:44:19;;;;;;;26.00;12.40;;;;;;;;;;4982085;28;20049;-80
2022/12/04 10:46:45;;;;;;;26.48;11.88;;;;;;;;;;4980417;28;20029;-80
2022/12/04 10:49:18;;;;;;;26.73;12.27;;;;;;;;;;4982373;28;20078;-80
2022/12/04 10:51:45;;;;;;;26.38;13.27;;;;;;;;;;4982287;28;20143;-81
2022/12/04 10:54:16;;;;;;;26.25;14.15;;;;;;;;;;4982717;28;20125;-82
2022/12/04 10:56:51;;;;;;;26.52;12.85;;;;;;;;;;4981850;28;20026;-80
2022/12/04 10:59:16;;;;;;;24.65;11.88;;;;;;;;;;4980487;28;20041;-80
2022/12/04 11:01:41;;;;;;;24.38;10.48;;;;;;;;;;4980960;28;20057;-81
2022/12/04 11:04:17;;;;;;;27.00;13.10;;;;;;;;;;4980468;28;20026;-81
2022/12/04 11:06:43;;;;;;;23.58;11.50;;;;;;;;;;4980111;28;20031;-81
2022/12/04 11:09:21;;;;;;;24.45;12.85;;;;;;;;;;4982030;28;20076;-79
2022/12/04 11:11:47;;;;;;;28.52;12.73;;;;;;;;;;4980860;28;20034;-81
2022/12/04 11:14:21;;;;;;;25.67;12.20;;;;;;;;;;4980421;28;20041;-79
2022/12/04 11:16:49;;;;;;;27.05;12.98;;;;;;;;;;4981608;28;20015;-79
2022/12/04 11:19:24;;;;;;;25.30;12.13;;;;;;;;;;4979984;28;20113;-82
2022/12/04 11:21:53;;;;;;;28.15;11.88;;;;;;;;;;4979877;28;20388;-82
2022/12/04 11:24:22;;;;;;;26.90;12.13;;;;;;;;;;4980372;28;20484;-82
2022/12/04 11:26:48;;;;;;;25.88;11.85;;;;;;;;;;4980351;28;20037;-81
2022/12/04 11:29:16;;;;;;;26.20;13.65;;;;;;;;;;4981142;28;20106;-81
2022/12/04 11:31:51;;;;;;;27.70;13.60;;;;;;;;;;4980713;28;20061;-80
2022/12/04 11:34:23;;;;;;;26.02;13.00;;;;;;;;;;4980012;28;20030;-80
2022/12/04 11:36:54;;;;;;;25.42;12.57;;;;;;;;;;4985376;28;20066;-81
2022/12/04 11:39:28;;;;;;;29.73;14.60;;;;;;;;;;4982301;28;20033;-81
2022/12/04 11:58:30;;;;;;;;;;;;;;;;;;;;;
2022/12/04 12:40:33;;;;;;;23.75;11.27;;;;;;;;;;4957844;28;20034;-83
2022/12/04 12:52:11;;;;;;;23.88;11.93;;;;;;;;;;4988744;23;20057;-81
2022/12/04 13:07:30;;;;;;;22.85;11.93;;;;;;;;;;4962152;29;20042;-83
2022/12/04 13:14:10;;;;;;;21.88;10.57;;;;;;;;;;4903061;29;20064;-83
2022/12/04 13:17:24;;;;;;;20.88;10.35;;;;;;;;;;4887062;29;20037;-83
2022/12/04 13:24:03;;;;;;;20.67;10.05;;;;;;;;;;4866468;29;20110;-84
2022/12/04 13:34:02;;;;;;;16.20;7.97;;;;;;;;;;4813615;29;20054;-82
2022/12/04 14:42:16;;;;;;;57.63;23.75;;;;;;;;;;1275214;26;20061;-85
2022/12/04 14:44:51;;;;;;;59.70;23.38;;;;;;;;;;4966710;28;20404;-88
2022/12/04 14:50:49;;;;;;;68.78;22.05;;;;;;;;;;5017216;23;20054;-84
2022/12/04 14:54:00;;;;;;;;;;;;;;;;;;;;;
2022/12/04 14:56:58;;;;;;;71.30;26.50;;;;;;;;;;4980761;28;20110;-86
2022/12/04 15:00:04;;;;;;;71.25;26.05;;;;;;;;;;4980857;28;20030;-83
2022/12/04 15:03:11;;;;;;;77.18;25.25;;;;;;;;;;4981748;28;20046;-84
2022/12/04 15:05:48;;;;;;;75.50;26.60;;;;;;;;;;4980501;28;20023;-81
2022/12/04 15:08:16;;;;;;;69.75;26.55;;;;;;;;;;4979040;28;20065;-85
2022/12/04 15:13:41;;;;;;;51.95;20.42;;;;;;;;;;4980824;28;20038;-85
2022/12/04 15:16:09;;;;;;;38.40;16.40;;;;;;;;;;4980612;28;20057;-84
2022/12/04 15:18:42;;;;;;;39.67;17.35;;;;;;;;;;4980558;28;20023;-85
2022/12/04 15:21:10;;;;;;;36.92;14.82;;;;;;;;;;4979108;28;20038;-84
2022/12/04 15:23:54;;;;;;;42.67;18.42;;;;;;;;;;4980649;28;20050;-84
2022/12/04 15:26:27;;;;;;;28.00;11.93;;;;;;;;;;4980840;28;20082;-84
2022/12/04 15:29:06;;;;;;;50.00;18.58;;;;;;;;;;4979634;28;20070;-83
2022/12/04 15:31:55;;;;;;;54.00;20.55;;;;;;;;;;4980828;28;20038;-83
2022/12/04 15:34:27;;;;;;;34.60;14.45;;;;;;;;;;4979706;28;20049;-84
2022/12/04 15:37:18;;;;;;;57.35;23.10;;;;;;;;;;4979467;28;20109;-84
2022/12/04 15:39:54;;;;;;;67.47;22.92;;;;;;;;;;4978763;28;20077;-87
2022/12/04 15:42:22;;;;;;;58.75;22.40;;;;;;;;;;4978428;28;20030;-83
2022/12/04 15:45:17;;;;;;;;;;;;;;;;;;;;;
2022/12/04 15:47:46;;;;;;;58.22;21.77;;;;;;;;;;4979142;28;20110;-84
2022/12/04 15:50:17;;;;;;;56.85;22.73;;;;;;;;;;4978847;28;20256;-84
2022/12/04 15:53:19;;;;;;;66.32;23.17;;;;;;;;;;4979365;28;20480;-83
2022/12/04 15:56:16;;;;;;;41.00;15.25;;;;;;;;;;4979003;28;20077;-84
2022/12/04 15:59:12;;;;;;;;;;;;;;;;;;;;;
2022/12/04 16:01:43;;;;;;;74.80;25.48;;;;;;;;;;4979698;28;20122;-83
2022/12/04 16:04:26;;;;;;;73.22;24.88;;;;;;;;;;4978800;28;20030;-84
2022/12/04 16:07:00;;;;;;;78.05;26.63;;;;;;;;;;4978580;28;20050;-85
2022/12/04 16:09:38;;;;;;;;;;;;;;;;;;;;;
2022/12/04 16:12:19;;;;;;;61.53;23.25;;;;;;;;;;4979342;28;20450;-84
2022/12/04 16:14:47;;;;;;;57.08;21.00;;;;;;;;;;4977221;28;20404;-84
2022/12/04 16:17:13;;;;;;;56.85;20.98;;;;;;;;;;4978538;28;20018;-83
2022/12/04 16:19:42;;;;;;;48.17;19.63;;;;;;;;;;4977613;28;20014;-85
2022/12/04 16:22:14;;;;;;;43.40;16.80;;;;;;;;;;4979506;28;20041;-83
2022/12/04 16:24:39;;;;;;;38.58;15.07;;;;;;;;;;4978677;28;20027;-84
2022/12/04 16:27:11;;;;;;;55.05;18.88;;;;;;;;;;4978606;28;20019;-83
2022/12/04 16:29:36;;;;;;;46.20;16.63;;;;;;;;;;4984697;28;20046;-83
2022/12/04 16:32:02;;;;;;;47.20;19.38;;;;;;;;;;4980445;28;20035;-84
2022/12/04 16:34:27;;;;;;;53.00;20.80;;;;;;;;;;4981541;28;20444;-83
2022/12/04 16:36:52;;;;;;;52.63;19.42;;;;;;;;;;4980688;28;20086;-84
2022/12/04 16:39:17;;;;;;;41.03;16.75;;;;;;;;;;4978900;28;20023;-84
2022/12/04 16:41:43;;;;;;;39.95;16.48;;;;;;;;;;4980056;28;20029;-83
2022/12/04 16:44:15;;;;;;;45.65;17.95;;;;;;;;;;4979114;28;20034;-83
2022/12/04 16:46:41;;;;;;;41.85;18.65;;;;;;;;;;4978846;28;20031;-82
2022/12/04 16:49:10;;;;;;;21.77;10.35;;;;;;;;;;4977980;28;20052;-82
2022/12/04 16:51:36;;;;;;;46.20;18.67;;;;;;;;;;4980463;28;20018;-84
2022/12/04 16:54:02;;;;;;;39.42;17.77;;;;;;;;;;4979577;28;20037;-83
2022/12/04 16:56:27;;;;;;;24.90;12.43;;;;;;;;;;4979513;28;20026;-83
2022/12/04 16:58:52;;;;;;;29.27;13.60;;;;;;;;;;4979952;28;20109;-83
2022/12/04 17:01:25;;;;;;;43.20;17.75;;;;;;;;;;4978673;28;20038;-83
2022/12/04 17:03:50;;;;;;;39.13;17.80;;;;;;;;;;4980219;28;20065;-84
2022/12/04 17:06:16;;;;;;;40.53;16.10;;;;;;;;;;4979493;28;20129;-83
2022/12/04 17:08:42;;;;;;;44.70;18.52;;;;;;;;;;4979342;28;20042;-83
2022/12/04 17:11:12;;;;;;;36.97;14.85;;;;;;;;;;4976610;28;20023;-83
2022/12/04 17:13:38;;;;;;;41.08;16.92;;;;;;;;;;4980722;28;20082;-81
2022/12/04 17:16:03;;;;;;;32.90;14.55;;;;;;;;;;4979668;28;20046;-87
2022/12/04 17:18:28;;;;;;;33.38;14.88;;;;;;;;;;4991602;28;20500;-80
2022/12/04 17:21:33;;;;;;;36.63;16.48;;;;;;;;;;4992843;28;20067;-86
2022/12/04 17:23:58;;;;;;;37.70;16.20;;;;;;;;;;4985565;28;20057;-83
2022/12/04 17:26:24;;;;;;;40.83;16.35;;;;;;;;;;4982294;28;20451;-83
2022/12/04 17:28:49;;;;;;;25.40;11.75;;;;;;;;;;4982239;28;20117;-82
2022/12/04 17:31:20;;;;;;;20.25;8.63;;;;;;;;;;4983032;28;20033;-82
2022/12/04 17:33:46;;;;;;;30.15;12.32;;;;;;;;;;4982692;28;20373;-82
2022/12/04 17:36:15;;;;;;;33.25;15.15;;;;;;;;;;4983066;28;20029;-82
2022/12/04 17:38:41;;;;;;;37.20;16.20;;;;;;;;;;4985309;28;20495;-84
2022/12/04 17:41:08;;;;;;;36.85;16.70;;;;;;;;;;4983770;28;20027;-82
2022/12/04 17:43:34;;;;;;;38.63;16.60;;;;;;;;;;4983562;28;20050;-82
2022/12/04 17:46:00;;;;;;;34.95;15.57;;;;;;;;;;4984335;28;20082;-83
2022/12/04 17:48:26;;;;;;;32.17;14.30;;;;;;;;;;4983224;28;20110;-82